Darstellungsparameter: Aktuell verwendete Einstellungen:
Skalierung der Graphiken ... ?
xyx+y,   Skalierungsfaktor:      Skalierung: Modus: x, Faktor: 1
Darstellungszeitraum ... ?
Vom - - bis: - -   Zeitraum: 28.08.2019 - 27.09.2019
Min/Max/Avg-Anzeige ... ?
Zeige MMA aktuell
Zeige MMA Monat
Zeige MMA alles
Zeige --A aktuell
Zeige --A Monat
Zeige --A alles
Keine MMA-Anzeige
MMA:
Average (ber die Originaldaten)
MMA-Basis: 28.08.2019 - 27.09.2019
Quicknavigation für Darstellung... ?
Tage:      1T, 2T, 3T, 5T -1T -2T -3T -5T +1T +2T +3T +5T
Wochen: 1W, 2W, 3W -1W -2W -3W +1W +2W +3W
Monate: 1M, 3M, 6M -1M -3M -6M +1M +3M +6M
Jahre:    1J, 3J, 5J, 10J -1J -3J -5J -10J +1J +3J +5J +10J
Nutze für die Darstellung ... ?
Originaldaten oder ...
Mittelwerte Minima Maxima auf...
Stundenbasis Tagesbasis Wochenbasis
Monatsbasis Jahresbasis      Datenbasis: Mittelwerte auf Stundenbasis
Darstellen als:
Statistik (Auto) Statistik J:M      Darstellung:
Zur Graphik,    zurück zur Übersicht aller Sensoren.
 
Tabellarische Datenbersicht: ?
 
Sensor: Nr:Datum:Temp:Abs-Feuchte:Windchill:Wind:
Aussen-T/F 1 28-08-2019 00:00:00 19.9 C 15.48 g/m*3 19.9 C 0.4 km/h
2 28-08-2019 01:00:00 19.61667 C 15.5 g/m*3 19.62 C 0 km/h
3 28-08-2019 02:00:00 19.24167 C 15.32 g/m*3 19.24 C 0 km/h
4 28-08-2019 03:00:00 18.71667 C 14.98 g/m*3 18.72 C 0.4 km/h
5 28-08-2019 04:00:00 18.33333 C 14.71 g/m*3 18.33 C 0 km/h
6 28-08-2019 05:00:00 17.96667 C 14.47 g/m*3 17.97 C 0 km/h
7 28-08-2019 06:00:00 18.01667 C 14.62 g/m*3 18.02 C 0 km/h
8 28-08-2019 07:00:00 17.85833 C 14.51 g/m*3 17.86 C 0 km/h
9 28-08-2019 08:00:00 18.64167 C 15.28 g/m*3 18.64 C 0.93333 km/h
10 28-08-2019 09:00:00 19.75833 C 15.89 g/m*3 19.76 C 2.8 km/h
11 28-08-2019 10:00:00 22.45 C 15.49 g/m*3 22.45 C 7.4 km/h
12 28-08-2019 11:00:00 23.975 C 15.57 g/m*3 23.98 C 4.40833 km/h
13 28-08-2019 12:00:00 24.49167 C 15.85 g/m*3 24.49 C 4.025 km/h
14 28-08-2019 13:00:00 26.54167 C 14.76 g/m*3 26.54 C 7.66667 km/h
15 28-08-2019 14:00:00 29.44167 C 14.81 g/m*3 29.44 C 9.29167 km/h
16 28-08-2019 15:00:00 30.35833 C 13.68 g/m*3 30.36 C 11.43333 km/h
17 28-08-2019 16:00:00 31.55833 C 13.63 g/m*3 31.56 C 11.29167 km/h
18 28-08-2019 17:00:00 31.80833 C 14.03 g/m*3 31.81 C 7.39167 km/h
19 28-08-2019 18:00:00 31.18333 C 14.79 g/m*3 31.18 C 4.96667 km/h
20 28-08-2019 19:00:00 27.875 C 14.09 g/m*3 27.88 C 0.53333 km/h
21 28-08-2019 20:00:00 25.59167 C 13.46 g/m*3 25.59 C 0.4 km/h
22 28-08-2019 21:00:00 24.2 C 13.75 g/m*3 24.2 C 0.53333 km/h
23 28-08-2019 22:00:00 22.43333 C 13.94 g/m*3 22.43 C 0 km/h
24 28-08-2019 23:00:00 21.38333 C 13.92 g/m*3 21.38 C 0 km/h
25 29-08-2019 00:00:00 20.775 C 13.89 g/m*3 20.78 C 0 km/h
Sensor: Nr:Datum:Temp:Abs-Feuchte:Windchill:Wind:
Aussen-T/F 26 29-08-2019 01:00:00 20.10833 C 13.75 g/m*3 20.11 C 0 km/h
27 29-08-2019 02:00:00 19.2 C 13.55 g/m*3 19.2 C 0 km/h
28 29-08-2019 03:00:00 18.225 C 13.21 g/m*3 18.23 C 0 km/h
29 29-08-2019 04:00:00 17.53333 C 13.15 g/m*3 17.53 C 0 km/h
30 29-08-2019 05:00:00 17.78333 C 13.63 g/m*3 17.78 C 0 km/h
31 29-08-2019 06:00:00 18.34167 C 14.08 g/m*3 18.34 C 0.53333 km/h
32 29-08-2019 07:00:00 19.04167 C 14.58 g/m*3 19.04 C 2.4 km/h
33 29-08-2019 08:00:00 19.89167 C 14.95 g/m*3 19.89 C 3.06667 km/h
34 29-08-2019 09:00:00 20.7 C 15.27 g/m*3 20.7 C 2.4 km/h
35 29-08-2019 10:00:00 21.175 C 16.01 g/m*3 21.18 C 0.4 km/h
36 29-08-2019 11:00:00 22.13333 C 16.14 g/m*3 22.13 C 2.94167 km/h
37 29-08-2019 12:00:00 23.29167 C 16.23 g/m*3 23.29 C 5.075 km/h
38 29-08-2019 13:00:00 25.45 C 16.23 g/m*3 25.45 C 8.475 km/h
39 29-08-2019 14:00:00 26.78333 C 16.49 g/m*3 26.78 C 7.925 km/h
40 29-08-2019 15:00:00 27.53333 C 16.59 g/m*3 27.53 C 9.41667 km/h
41 29-08-2019 16:00:00 27.875 C 16.18 g/m*3 27.88 C 9.40833 km/h
42 29-08-2019 17:00:00 27.28333 C 15.75 g/m*3 27.28 C 8.74167 km/h
43 29-08-2019 18:00:00 26.44167 C 15.18 g/m*3 26.44 C 8.325 km/h
44 29-08-2019 19:00:00 24.73333 C 14.66 g/m*3 24.73 C 4.675 km/h
45 29-08-2019 20:00:00 22.80833 C 14.37 g/m*3 22.81 C 1.2 km/h
46 29-08-2019 21:00:00 20.89167 C 13.97 g/m*3 20.89 C 0.4 km/h
47 29-08-2019 22:00:00 20.525 C 14.05 g/m*3 20.53 C 0.13333 km/h
48 29-08-2019 23:00:00 20.48333 C 14.15 g/m*3 20.48 C 0.26667 km/h
49 30-08-2019 00:00:00 20.30833 C 13.9 g/m*3 20.31 C 2.4 km/h
50 30-08-2019 01:00:00 19.18333 C 13.66 g/m*3 19.18 C 0 km/h
Sensor: Nr:Datum:Temp:Abs-Feuchte:Windchill:Wind:
Aussen-T/F 51 30-08-2019 02:00:00 18.2 C 13.38 g/m*3 18.2 C 0 km/h
52 30-08-2019 03:00:00 17.48333 C 13.17 g/m*3 17.48 C 0 km/h
53 30-08-2019 04:00:00 16.65833 C 12.77 g/m*3 16.66 C 0 km/h
54 30-08-2019 05:00:00 15.975 C 12.62 g/m*3 15.98 C 0.13333 km/h
55 30-08-2019 06:00:00 15.91667 C 12.64 g/m*3 15.92 C 0.13333 km/h
56 30-08-2019 07:00:00 15.41667 C 12.32 g/m*3 15.42 C 0 km/h
57 30-08-2019 08:00:00 16.09167 C 12.94 g/m*3 16.09 C 0.26667 km/h
58 30-08-2019 09:00:00 17.96667 C 13.59 g/m*3 17.97 C 1.06667 km/h
59 30-08-2019 10:00:00 19.41667 C 13.65 g/m*3 19.42 C 1.2 km/h
60 30-08-2019 11:00:00 20.825 C 13.78 g/m*3 20.83 C 1.46667 km/h
61 30-08-2019 12:00:00 22.16667 C 14.24 g/m*3 22.17 C 3.86667 km/h
62 30-08-2019 13:00:00 23.59167 C 14.51 g/m*3 23.59 C 4.84167 km/h
63 30-08-2019 14:00:00 25 C 14 g/m*3 25 C 6.01667 km/h
64 30-08-2019 15:00:00 26.16667 C 12.59 g/m*3 26.17 C 5.75833 km/h
65 30-08-2019 16:00:00 27.98333 C 12.41 g/m*3 27.98 C 5.49167 km/h
66 30-08-2019 17:00:00 29.66667 C 11.27 g/m*3 29.67 C 3.73333 km/h
67 30-08-2019 18:00:00 29.54167 C 11.12 g/m*3 29.54 C 6.29167 km/h
68 30-08-2019 19:00:00 27.175 C 12.24 g/m*3 27.18 C 2.13333 km/h
69 30-08-2019 20:00:00 23 C 11.42 g/m*3 23 C 0.26667 km/h
70 30-08-2019 21:00:00 20.38333 C 11.5 g/m*3 20.38 C 0 km/h
71 30-08-2019 22:00:00 18.64167 C 11.58 g/m*3 18.64 C 0 km/h
72 30-08-2019 23:00:00 17.38333 C 11.44 g/m*3 17.38 C 0 km/h
73 31-08-2019 00:00:00 16.65 C 11.48 g/m*3 16.65 C 0 km/h
74 31-08-2019 01:00:00 15.825 C 11.35 g/m*3 15.83 C 0 km/h
75 31-08-2019 02:00:00 15.21667 C 11.21 g/m*3 15.22 C 0 km/h
Sensor: Nr:Datum:Temp:Abs-Feuchte:Windchill:Wind:
Aussen-T/F 76 31-08-2019 03:00:00 14.75 C 11.18 g/m*3 14.75 C 0 km/h
77 31-08-2019 04:00:00 14.31667 C 11.09 g/m*3 14.32 C 0 km/h
78 31-08-2019 05:00:00 14.15 C 11.15 g/m*3 14.15 C 0 km/h
79 31-08-2019 06:00:00 14.1 C 11.17 g/m*3 14.1 C 0 km/h
80 31-08-2019 07:00:00 14.10833 C 11.25 g/m*3 14.11 C 0 km/h
81 31-08-2019 08:00:00 14.76667 C 11.71 g/m*3 14.77 C 0 km/h
82 31-08-2019 09:00:00 15.89167 C 12.49 g/m*3 15.89 C 0 km/h
83 31-08-2019 10:00:00 17.8 C 13.51 g/m*3 17.8 C 0 km/h
84 31-08-2019 11:00:00 20.6 C 14.54 g/m*3 20.6 C 0 km/h
85 31-08-2019 12:00:00 23.625 C 15.57 g/m*3 23.63 C 0.675 km/h
86 31-08-2019 13:00:00 28.49167 C 15.25 g/m*3 28.49 C 7.24167 km/h
87 31-08-2019 14:00:00 30.36667 C 14.64 g/m*3 30.37 C 6.83333 km/h
88 31-08-2019 15:00:00 31.43333 C 14.19 g/m*3 31.43 C 8.2 km/h
89 31-08-2019 16:00:00 32.48333 C 14.66 g/m*3 32.48 C 6.16667 km/h
90 31-08-2019 17:00:00 33.89167 C 14.86 g/m*3 33.89 C 8.05 km/h
91 31-08-2019 18:00:00 33.71667 C 14.79 g/m*3 33.72 C 6.43333 km/h
92 31-08-2019 19:00:00 31.13333 C 15.74 g/m*3 31.13 C 0.8 km/h
93 31-08-2019 20:00:00 25.89167 C 14.52 g/m*3 25.89 C 0.4 km/h
94 31-08-2019 21:00:00 24.875 C 14.17 g/m*3 24.88 C 4.95833 km/h
95 31-08-2019 22:00:00 24.58333 C 15.85 g/m*3 24.58 C 4.81667 km/h
96 31-08-2019 23:00:00 20.69167 C 15.76 g/m*3 20.69 C 1.73333 km/h
97 01-09-2019 00:00:00 19.66667 C 15.46 g/m*3 19.67 C 0.66667 km/h
98 01-09-2019 01:00:00 19.34167 C 15.12 g/m*3 19.34 C 0.53333 km/h
99 01-09-2019 02:00:00 19.10833 C 14.09 g/m*3 19.11 C 0 km/h
100 01-09-2019 03:00:00 18.325 C 13.17 g/m*3 18.33 C 1.33333 km/h
Sensor: Nr:Datum:Temp:Abs-Feuchte:Windchill:Wind:
Aussen-T/F 101 01-09-2019 04:00:00 17.88333 C 12.23 g/m*3 17.88 C 2.66667 km/h
102 01-09-2019 05:00:00 17.84167 C 12.03 g/m*3 17.84 C 4.81667 km/h
103 01-09-2019 06:00:00 17.30833 C 11.73 g/m*3 17.31 C 2.80833 km/h
104 01-09-2019 07:00:00 16.1 C 11.74 g/m*3 16.1 C 0.53333 km/h
105 01-09-2019 08:00:00 17.48333 C 12.3 g/m*3 17.48 C 4.28333 km/h
106 01-09-2019 09:00:00 18.13333 C 12.46 g/m*3 18.13 C 5.75 km/h
107 01-09-2019 10:00:00 19.10833 C 12.55 g/m*3 19.11 C 7.65 km/h
108 01-09-2019 11:00:00 20.025 C 12.85 g/m*3 20.02 C 8.05833 km/h
109 01-09-2019 12:00:00 20.05 C 12.97 g/m*3 20.05 C 10.08333 km/h
110 01-09-2019 13:00:00 19.69167 C 13.22 g/m*3 19.69 C 11.29167 km/h
111 01-09-2019 14:00:00 20.075 C 13.13 g/m*3 20.08 C 8.04167 km/h
112 01-09-2019 15:00:00 20.61667 C 12.84 g/m*3 20.62 C 8.05 km/h
113 01-09-2019 16:00:00 20.38333 C 12.02 g/m*3 20.38 C 11.01667 km/h
114 01-09-2019 17:00:00 19.975 C 11.29 g/m*3 19.98 C 10.49167 km/h
115 01-09-2019 18:00:00 20.75833 C 10.94 g/m*3 20.76 C 10.1 km/h
116 01-09-2019 19:00:00 20.60833 C 10.37 g/m*3 20.61 C 6.725 km/h
117 01-09-2019 20:00:00 18.38333 C 10.45 g/m*3 18.38 C 1.475 km/h
118 01-09-2019 21:00:00 16.68333 C 10.27 g/m*3 16.68 C 0 km/h
119 01-09-2019 22:00:00 16.39167 C 9.96 g/m*3 16.39 C 0 km/h
120 01-09-2019 23:00:00 15.59167 C 9.97 g/m*3 15.59 C 0 km/h
121 02-09-2019 00:00:00 14.44167 C 9.36 g/m*3 14.44 C 0 km/h
122 02-09-2019 01:00:00 13.29167 C 8.99 g/m*3 13.29 C 0 km/h
123 02-09-2019 02:00:00 13.3 C 9.27 g/m*3 13.3 C 0 km/h
124 02-09-2019 03:00:00 13.025 C 9.37 g/m*3 13.03 C 0 km/h
125 02-09-2019 04:00:00 12 C 8.94 g/m*3 12 C 0.4 km/h
Sensor: Nr:Datum:Temp:Abs-Feuchte:Windchill:Wind:
Aussen-T/F 126 02-09-2019 05:00:00 11.21667 C 8.72 g/m*3 11.22 C 0 km/h
127 02-09-2019 06:00:00 10.15 C 8.45 g/m*3 10.15 C 0 km/h
128 02-09-2019 07:00:00 9.73333 C 8.47 g/m*3 9.73 C 0.53333 km/h
129 02-09-2019 08:00:00 10.03333 C 8.75 g/m*3 10.03 C 0 km/h
130 02-09-2019 09:00:00 10.83333 C 9.17 g/m*3 10.83 C 0 km/h
131 02-09-2019 10:00:00 12.85833 C 9.9 g/m*3 12.86 C 0.8 km/h
132 02-09-2019 11:00:00 16.2 C 9.16 g/m*3 16.2 C 7.93333 km/h
133 02-09-2019 12:00:00 17.53333 C 8.44 g/m*3 17.53 C 8.74167 km/h
134 02-09-2019 13:00:00 18.70833 C 7.96 g/m*3 18.71 C 9.95833 km/h
135 02-09-2019 14:00:00 19.83333 C 7.92 g/m*3 19.83 C 9.28333 km/h
136 02-09-2019 15:00:00 20.175 C 7.9 g/m*3 20.18 C 7.90833 km/h
137 02-09-2019 16:00:00 21.80833 C 7.98 g/m*3 21.81 C 9.68333 km/h
138 02-09-2019 17:00:00 23.09167 C 7.83 g/m*3 23.09 C 6.70833 km/h
139 02-09-2019 18:00:00 22.99167 C 7.67 g/m*3 22.99 C 5.48333 km/h
140 02-09-2019 19:00:00 20.575 C 8.35 g/m*3 20.58 C 1.2 km/h
141 02-09-2019 20:00:00 16.9 C 8.1 g/m*3 16.9 C 0.93333 km/h
142 02-09-2019 21:00:00 15.39167 C 7.97 g/m*3 15.39 C 0.26667 km/h
143 02-09-2019 22:00:00 13.475 C 8.19 g/m*3 13.48 C 0 km/h
144 02-09-2019 23:00:00 12.98333 C 8.24 g/m*3 12.98 C 0 km/h
145 03-09-2019 00:00:00 12.39167 C 8.17 g/m*3 12.39 C 0 km/h
146 03-09-2019 01:00:00 12.125 C 8.22 g/m*3 12.13 C 0 km/h
147 03-09-2019 02:00:00 10.89167 C 7.86 g/m*3 10.89 C 0 km/h
148 03-09-2019 03:00:00 10.175 C 7.75 g/m*3 10.18 C 0 km/h
149 03-09-2019 04:00:00 10.08333 C 7.92 g/m*3 10.08 C 0 km/h
150 03-09-2019 05:00:00 9.45 C 7.72 g/m*3 9.45 C 0 km/h
Sensor: Nr:Datum:Temp:Abs-Feuchte:Windchill:Wind:
Aussen-T/F 151 03-09-2019 06:00:00 8.91667 C 7.64 g/m*3 8.92 C 0 km/h
152 03-09-2019 07:00:00 8.65833 C 7.66 g/m*3 8.66 C 0.13333 km/h
153 03-09-2019 08:00:00 9.08333 C 7.95 g/m*3 9.08 C 0 km/h
154 03-09-2019 09:00:00 10.375 C 8.56 g/m*3 10.38 C 0.26667 km/h
155 03-09-2019 10:00:00 13.225 C 9.38 g/m*3 13.23 C 1.46667 km/h
156 03-09-2019 11:00:00 17.34167 C 9.34 g/m*3 17.34 C 5.90833 km/h
157 03-09-2019 12:00:00 19.95833 C 9.22 g/m*3 19.96 C 8.18333 km/h
158 03-09-2019 13:00:00 21.25 C 9.23 g/m*3 21.25 C 11.55833 km/h
159 03-09-2019 14:00:00 22.64167 C 9.16 g/m*3 22.64 C 10.35 km/h
160 03-09-2019 15:00:00 23.75 C 9.83 g/m*3 23.75 C 10.20833 km/h
161 03-09-2019 16:00:00 23.58333 C 10.59 g/m*3 23.58 C 10.75 km/h
162 03-09-2019 17:00:00 23.65 C 10.86 g/m*3 23.65 C 11.7 km/h
163 03-09-2019 18:00:00 23.225 C 10.95 g/m*3 23.23 C 10.63333 km/h
164 03-09-2019 19:00:00 21.11667 C 10.84 g/m*3 21.12 C 7.91667 km/h
165 03-09-2019 20:00:00 18.86667 C 10.66 g/m*3 18.87 C 2.40833 km/h
166 03-09-2019 21:00:00 16.325 C 10.42 g/m*3 16.33 C 0 km/h
167 03-09-2019 22:00:00 15.33333 C 10.37 g/m*3 15.33 C 0.13333 km/h
168 03-09-2019 23:00:00 14.05 C 10.08 g/m*3 14.05 C 0 km/h
169 04-09-2019 00:00:00 13.05 C 9.9 g/m*3 13.05 C 0 km/h
170 04-09-2019 01:00:00 12.35 C 9.74 g/m*3 12.35 C 0 km/h
171 04-09-2019 02:00:00 11.85833 C 9.58 g/m*3 11.86 C 0 km/h
172 04-09-2019 03:00:00 11.325 C 9.39 g/m*3 11.33 C 0 km/h
173 04-09-2019 04:00:00 10.74167 C 9.12 g/m*3 10.74 C 0 km/h
174 04-09-2019 05:00:00 10.36667 C 9 g/m*3 10.37 C 0 km/h
175 04-09-2019 06:00:00 10.15833 C 8.95 g/m*3 10.16 C 0 km/h
Sensor: Nr:Datum:Temp:Abs-Feuchte:Windchill:Wind:
Aussen-T/F 176 04-09-2019 07:00:00 10.09167 C 8.96 g/m*3 10.09 C 0 km/h
177 04-09-2019 08:00:00 10.675 C 9.35 g/m*3 10.68 C 0.4 km/h
178 04-09-2019 09:00:00 13.11667 C 10.54 g/m*3 13.12 C 4.26667 km/h
179 04-09-2019 10:00:00 14.875 C 10.87 g/m*3 14.88 C 3.73333 km/h
180 04-09-2019 11:00:00 18.09167 C 11.22 g/m*3 18.09 C 11.68333 km/h
181 04-09-2019 12:00:00 19.78333 C 11.25 g/m*3 19.78 C 12.1 km/h
182 04-09-2019 13:00:00 21.16667 C 11.47 g/m*3 21.17 C 12.63333 km/h
183 04-09-2019 14:00:00 22.59167 C 11.56 g/m*3 22.59 C 14.63333 km/h
184 04-09-2019 15:00:00 23.85 C 11.54 g/m*3 23.85 C 11.01667 km/h
185 04-09-2019 16:00:00 25.11667 C 11.74 g/m*3 25.12 C 11.825 km/h
186 04-09-2019 17:00:00 26.875 C 11.46 g/m*3 26.88 C 10.35 km/h
187 04-09-2019 18:00:00 25.04167 C 10.84 g/m*3 25.04 C 14.49167 km/h
188 04-09-2019 19:00:00 23.58333 C 11.1 g/m*3 23.58 C 9.65833 km/h
189 04-09-2019 20:00:00 19.81667 C 11.87 g/m*3 19.82 C 9.50833 km/h
190 04-09-2019 21:00:00 17.625 C 12.77 g/m*3 17.63 C 0.53333 km/h
191 04-09-2019 22:00:00 16.28333 C 12.52 g/m*3 16.28 C 0.53333 km/h
192 04-09-2019 23:00:00 15.64167 C 12.12 g/m*3 15.64 C 0.4 km/h
193 05-09-2019 00:00:00 15.6 C 12.1 g/m*3 15.6 C 0 km/h
194 05-09-2019 01:00:00 15.41667 C 11.73 g/m*3 15.42 C 1.33333 km/h
195 05-09-2019 02:00:00 14.29167 C 10.66 g/m*3 14.29 C 1.06667 km/h
196 05-09-2019 03:00:00 13.975 C 10.44 g/m*3 13.98 C 1.6 km/h
197 05-09-2019 04:00:00 14.075 C 10.3 g/m*3 14.08 C 3.06667 km/h
198 05-09-2019 05:00:00 13.48333 C 9.83 g/m*3 13.48 C 3.875 km/h
199 05-09-2019 06:00:00 12.56667 C 9.49 g/m*3 12.57 C 4.13333 km/h
200 05-09-2019 07:00:00 12.20833 C 9.38 g/m*3 12.21 C 5.49167 km/h
Sensor: Nr:Datum:Temp:Abs-Feuchte:Windchill:Wind:
Aussen-T/F 201 05-09-2019 08:00:00 12.58333 C 9.44 g/m*3 12.58 C 8.75833 km/h
202 05-09-2019 09:00:00 13.59167 C 9.67 g/m*3 13.59 C 7.65833 km/h
203 05-09-2019 10:00:00 15.475 C 10.21 g/m*3 15.48 C 9.95 km/h
204 05-09-2019 11:00:00 16.775 C 10.05 g/m*3 16.77 C 14.24167 km/h
205 05-09-2019 12:00:00 17.09167 C 9.8 g/m*3 17.09 C 10.48333 km/h
206 05-09-2019 13:00:00 18.1 C 9.41 g/m*3 18.1 C 10.225 km/h
207 05-09-2019 14:00:00 18.09167 C 9.72 g/m*3 18.09 C 13.03333 km/h
208 05-09-2019 15:00:00 18.5 C 9.11 g/m*3 18.5 C 11.15833 km/h
209 05-09-2019 16:00:00 18.91667 C 9.07 g/m*3 18.92 C 13.16667 km/h
210 05-09-2019 17:00:00 17.225 C 9.36 g/m*3 17.23 C 15.43333 km/h
211 05-09-2019 18:00:00 16.4 C 9.44 g/m*3 16.4 C 8.59167 km/h
212 05-09-2019 19:00:00 16.46667 C 9.02 g/m*3 16.47 C 6.325 km/h
213 05-09-2019 20:00:00 15.70833 C 9.25 g/m*3 15.71 C 6.71667 km/h
214 05-09-2019 21:00:00 14.93333 C 8.97 g/m*3 14.93 C 5.35833 km/h
215 05-09-2019 22:00:00 14.49167 C 9.01 g/m*3 14.49 C 2.53333 km/h
216 05-09-2019 23:00:00 13.94167 C 8.89 g/m*3 13.94 C 1.875 km/h
217 06-09-2019 00:00:00 12.025 C 8.52 g/m*3 12.03 C 0.4 km/h
218 06-09-2019 01:00:00 11.23333 C 8.41 g/m*3 11.23 C 1.73333 km/h
219 06-09-2019 02:00:00 10.40833 C 8.34 g/m*3 10.41 C 0 km/h
220 06-09-2019 03:00:00 9.875 C 8.21 g/m*3 9.88 C 0.13333 km/h
221 06-09-2019 04:00:00 9.00833 C 7.89 g/m*3 9.01 C 0 km/h
222 06-09-2019 05:00:00 8.075 C 7.6 g/m*3 8.07 C 0 km/h
223 06-09-2019 06:00:00 7.56667 C 7.46 g/m*3 7.57 C 0 km/h
224 06-09-2019 07:00:00 7.31667 C 7.41 g/m*3 7.32 C 0 km/h
225 06-09-2019 08:00:00 7.85 C 7.77 g/m*3 7.85 C 0 km/h
Sensor: Nr:Datum:Temp:Abs-Feuchte:Windchill:Wind:
Aussen-T/F 226 06-09-2019 09:00:00 8.75 C 8.25 g/m*3 8.75 C 0 km/h
227 06-09-2019 10:00:00 10.175 C 9.03 g/m*3 10.18 C 0.13333 km/h
228 06-09-2019 11:00:00 12.55833 C 9.18 g/m*3 12.56 C 1.73333 km/h
229 06-09-2019 12:00:00 15.03333 C 8.28 g/m*3 15.03 C 4.00833 km/h
230 06-09-2019 13:00:00 16.51667 C 8.14 g/m*3 16.52 C 4.4 km/h
231 06-09-2019 14:00:00 18.3 C 7.75 g/m*3 18.3 C 8.325 km/h
232 06-09-2019 15:00:00 19.475 C 7.53 g/m*3 19.48 C 9.26667 km/h
233 06-09-2019 16:00:00 20.7 C 7.17 g/m*3 20.7 C 7.24167 km/h
234 06-09-2019 17:00:00 22.36667 C 7.38 g/m*3 22.37 C 7.79167 km/h
235 06-09-2019 18:00:00 22.25 C 7.74 g/m*3 22.25 C 6.975 km/h
236 06-09-2019 19:00:00 19.41667 C 8.07 g/m*3 19.42 C 0.8 km/h
237 06-09-2019 20:00:00 16.04167 C 7.71 g/m*3 16.04 C 0 km/h
238 06-09-2019 21:00:00 14.65 C 7.6 g/m*3 14.65 C 0 km/h
239 06-09-2019 22:00:00 12.74167 C 7.65 g/m*3 12.74 C 0.26667 km/h
240 06-09-2019 23:00:00 12.69167 C 7.95 g/m*3 12.69 C 2 km/h
241 07-09-2019 00:00:00 12.25833 C 7.99 g/m*3 12.26 C 0.93333 km/h
242 07-09-2019 01:00:00 12.41667 C 8.06 g/m*3 12.42 C 1.73333 km/h
243 07-09-2019 02:00:00 12.19167 C 8.09 g/m*3 12.19 C 1.73333 km/h
244 07-09-2019 03:00:00 12.375 C 8.15 g/m*3 12.38 C 3.33333 km/h
245 07-09-2019 04:00:00 12.69167 C 8.26 g/m*3 12.69 C 3.89167 km/h
246 07-09-2019 05:00:00 12.64167 C 8.27 g/m*3 12.64 C 1.075 km/h
247 07-09-2019 06:00:00 12.29167 C 8.35 g/m*3 12.29 C 0 km/h
248 07-09-2019 07:00:00 11.96667 C 9.01 g/m*3 11.97 C 0.13333 km/h
249 07-09-2019 08:00:00 11.78333 C 9.52 g/m*3 11.78 C 0.13333 km/h
250 07-09-2019 09:00:00 11.80833 C 9.78 g/m*3 11.81 C 0 km/h
Sensor: Nr:Datum:Temp:Abs-Feuchte:Windchill:Wind:
Aussen-T/F 251 07-09-2019 10:00:00 12.225 C 10.16 g/m*3 12.23 C 0 km/h
252 07-09-2019 11:00:00 12.80833 C 10.52 g/m*3 12.81 C 0.4 km/h
253 07-09-2019 12:00:00 13.475 C 10.93 g/m*3 13.48 C 1.06667 km/h
254 07-09-2019 13:00:00 14.19167 C 11.31 g/m*3 14.19 C 1.06667 km/h
255 07-09-2019 14:00:00 14.46667 C 11.38 g/m*3 14.47 C 1.73333 km/h
256 07-09-2019 15:00:00 14.93333 C 11.53 g/m*3 14.93 C 3.73333 km/h
257 07-09-2019 16:00:00 15.25 C 11.63 g/m*3 15.25 C 0.93333 km/h
258 07-09-2019 17:00:00 15.30833 C 11.66 g/m*3 15.31 C 3.21667 km/h
259 07-09-2019 18:00:00 14.29167 C 11.14 g/m*3 14.29 C 0.93333 km/h
260 07-09-2019 19:00:00 13.34167 C 10.59 g/m*3 13.34 C 0.66667 km/h
261 07-09-2019 20:00:00 12.64167 C 10.32 g/m*3 12.64 C 0.13333 km/h
262 07-09-2019 21:00:00 12.00833 C 9.95 g/m*3 12.01 C 0 km/h
263 07-09-2019 22:00:00 11.8 C 9.94 g/m*3 11.8 C 0 km/h
264 07-09-2019 23:00:00 11.725 C 9.95 g/m*3 11.73 C 0 km/h
265 08-09-2019 00:00:00 11.7 C 9.94 g/m*3 11.7 C 0 km/h
266 08-09-2019 01:00:00 11.75833 C 10.04 g/m*3 11.76 C 0 km/h
267 08-09-2019 02:00:00 11.29167 C 9.74 g/m*3 11.29 C 0 km/h
268 08-09-2019 03:00:00 11.3 C 9.79 g/m*3 11.3 C 0 km/h
269 08-09-2019 04:00:00 11.7 C 10.08 g/m*3 11.7 C 0 km/h
270 08-09-2019 05:00:00 11.90833 C 10.17 g/m*3 11.91 C 0 km/h
271 08-09-2019 06:00:00 12.075 C 10.36 g/m*3 12.08 C 0.13333 km/h
272 08-09-2019 07:00:00 12.20833 C 10.41 g/m*3 12.21 C 0.4 km/h
273 08-09-2019 08:00:00 12.31667 C 10.43 g/m*3 12.32 C 1.46667 km/h
274 08-09-2019 09:00:00 12.325 C 10.38 g/m*3 12.33 C 4.13333 km/h
275 08-09-2019 10:00:00 12.575 C 10.57 g/m*3 12.58 C 0 km/h
Sensor: Nr:Datum:Temp:Abs-Feuchte:Windchill:Wind:
Aussen-T/F 276 08-09-2019 11:00:00 12.625 C 10.64 g/m*3 12.63 C 0.4 km/h
277 08-09-2019 12:00:00 12.81667 C 10.75 g/m*3 12.82 C 2.53333 km/h
278 08-09-2019 13:00:00 13.94167 C 11.24 g/m*3 13.94 C 1.6 km/h
279 08-09-2019 14:00:00 14.875 C 11.24 g/m*3 14.88 C 3.6 km/h
280 08-09-2019 15:00:00 15.73333 C 11.27 g/m*3 15.73 C 1.6 km/h
281 08-09-2019 16:00:00 15.65833 C 11.32 g/m*3 15.66 C 1.46667 km/h
282 08-09-2019 17:00:00 13.49167 C 10.83 g/m*3 13.49 C 2.53333 km/h
283 08-09-2019 18:00:00 12.8 C 10.56 g/m*3 12.8 C 0.8 km/h
284 08-09-2019 19:00:00 12.96667 C 10.8 g/m*3 12.97 C 0 km/h
285 08-09-2019 20:00:00 12.56667 C 10.5 g/m*3 12.57 C 3.35 km/h
286 08-09-2019 21:00:00 12.1 C 10.23 g/m*3 12.1 C 0.53333 km/h
287 08-09-2019 22:00:00 11.81667 C 10.11 g/m*3 11.82 C 0 km/h
288 08-09-2019 23:00:00 11.71667 C 10.05 g/m*3 11.72 C 0 km/h
289 09-09-2019 00:00:00 11.45 C 9.88 g/m*3 11.45 C 0 km/h
290 09-09-2019 01:00:00 11.26667 C 9.78 g/m*3 11.27 C 0.26667 km/h
291 09-09-2019 02:00:00 11.29167 C 9.87 g/m*3 11.29 C 0 km/h
292 09-09-2019 03:00:00 11.36667 C 9.94 g/m*3 11.37 C 0 km/h
293 09-09-2019 04:00:00 11.36667 C 9.94 g/m*3 11.37 C 0 km/h
294 09-09-2019 05:00:00 11.29167 C 9.89 g/m*3 11.29 C 0 km/h
295 09-09-2019 06:00:00 11.3 C 9.89 g/m*3 11.3 C 0 km/h
296 09-09-2019 07:00:00 11.275 C 9.88 g/m*3 11.28 C 0 km/h
297 09-09-2019 08:00:00 11.39167 C 9.95 g/m*3 11.39 C 0 km/h
298 09-09-2019 09:00:00 12.01667 C 10.35 g/m*3 12.02 C 0.26667 km/h
299 09-09-2019 10:00:00 12.23333 C 10.49 g/m*3 12.23 C 0.13333 km/h
300 09-09-2019 11:00:00 12.55833 C 10.62 g/m*3 12.56 C 2.66667 km/h
Sensor: Nr:Datum:Temp:Abs-Feuchte:Windchill:Wind:
Aussen-T/F 301 09-09-2019 12:00:00 13.15 C 10.48 g/m*3 13.15 C 1.73333 km/h
302 09-09-2019 13:00:00 14.2 C 10.57 g/m*3 14.2 C 2.4 km/h
303 09-09-2019 14:00:00 14.81667 C 10.11 g/m*3 14.82 C 1.73333 km/h
304 09-09-2019 15:00:00 15.175 C 10.39 g/m*3 15.18 C 0.8 km/h
305 09-09-2019 16:00:00 15.475 C 10.21 g/m*3 15.48 C 1.06667 km/h
306 09-09-2019 17:00:00 15.74167 C 9.89 g/m*3 15.74 C 1.33333 km/h
307 09-09-2019 18:00:00 16.33333 C 10.25 g/m*3 16.33 C 1.46667 km/h
308 09-09-2019 19:00:00 14.35 C 10.11 g/m*3 14.35 C 0.53333 km/h
309 09-09-2019 20:00:00 12.00833 C 9.36 g/m*3 12.01 C 0.4 km/h
310 09-09-2019 21:00:00 10.79167 C 8.96 g/m*3 10.79 C 0.13333 km/h
311 09-09-2019 22:00:00 10.05 C 8.74 g/m*3 10.05 C 0 km/h
312 09-09-2019 23:00:00 9.30833 C 8.44 g/m*3 9.31 C 0 km/h
313 10-09-2019 00:00:00 8.75833 C 8.22 g/m*3 8.76 C 0 km/h
314 10-09-2019 01:00:00 8.44167 C 8.09 g/m*3 8.44 C 0 km/h
315 10-09-2019 02:00:00 8.3 C 8.07 g/m*3 8.3 C 0 km/h
316 10-09-2019 03:00:00 8.625 C 8.26 g/m*3 8.63 C 0.53333 km/h
317 10-09-2019 04:00:00 8.65 C 8.28 g/m*3 8.65 C 0.66667 km/h
318 10-09-2019 05:00:00 8.55833 C 8.24 g/m*3 8.56 C 0.26667 km/h
319 10-09-2019 06:00:00 8.2 C 8.1 g/m*3 8.2 C 0.8 km/h
320 10-09-2019 07:00:00 8.225 C 8.14 g/m*3 8.23 C 0.13333 km/h
321 10-09-2019 08:00:00 8.21667 C 8.13 g/m*3 8.22 C 2.26667 km/h
322 10-09-2019 09:00:00 8.45833 C 8.26 g/m*3 8.46 C 2.13333 km/h
323 10-09-2019 10:00:00 9.05 C 8.58 g/m*3 9.05 C 1.33333 km/h
324 10-09-2019 11:00:00 9.94167 C 9.08 g/m*3 9.94 C 2.26667 km/h
325 10-09-2019 12:00:00 11.78333 C 9.92 g/m*3 11.78 C 0.4 km/h
Sensor: Nr:Datum:Temp:Abs-Feuchte:Windchill:Wind:
Aussen-T/F 326 10-09-2019 13:00:00 14.85833 C 9.92 g/m*3 14.86 C 1.6 km/h
327 10-09-2019 14:00:00 17.25 C 9.44 g/m*3 17.25 C 3.60833 km/h
328 10-09-2019 15:00:00 18.43333 C 9.19 g/m*3 18.43 C 5.36667 km/h
329 10-09-2019 16:00:00 19.65 C 8.8 g/m*3 19.65 C 8.20833 km/h
330 10-09-2019 17:00:00 18.38333 C 10.55 g/m*3 18.38 C 0.8 km/h
331 10-09-2019 18:00:00 18.33333 C 10.97 g/m*3 18.33 C 0 km/h
332 10-09-2019 19:00:00 16.4 C 10.1 g/m*3 16.4 C 0.13333 km/h
333 10-09-2019 20:00:00 13.775 C 8.93 g/m*3 13.78 C 0 km/h
334 10-09-2019 21:00:00 12.03333 C 8.86 g/m*3 12.03 C 0 km/h
335 10-09-2019 22:00:00 10.66667 C 8.52 g/m*3 10.67 C 0 km/h
336 10-09-2019 23:00:00 9.78333 C 8.23 g/m*3 9.78 C 0 km/h
337 11-09-2019 00:00:00 9.2 C 8.04 g/m*3 9.2 C 0 km/h
338 11-09-2019 01:00:00 8.61667 C 7.86 g/m*3 8.62 C 0 km/h
339 11-09-2019 02:00:00 8.04167 C 7.69 g/m*3 8.04 C 0.13333 km/h
340 11-09-2019 03:00:00 7.64167 C 7.55 g/m*3 7.64 C 0 km/h
341 11-09-2019 04:00:00 7.26667 C 7.41 g/m*3 7.27 C 0 km/h
342 11-09-2019 05:00:00 6.90833 C 7.3 g/m*3 6.91 C 0 km/h
343 11-09-2019 06:00:00 6.65833 C 7.2 g/m*3 6.66 C 0 km/h
344 11-09-2019 07:00:00 6.55 C 7.2 g/m*3 6.55 C 0.675 km/h
345 11-09-2019 08:00:00 7.99167 C 7.97 g/m*3 7.99 C 1.60833 km/h
346 11-09-2019 09:00:00 9.51667 C 8.59 g/m*3 9.52 C 2.8 km/h
347 11-09-2019 10:00:00 10.85 C 9.29 g/m*3 10.85 C 0 km/h
348 11-09-2019 11:00:00 13.10833 C 10.13 g/m*3 13.11 C 1.6 km/h
349 11-09-2019 12:00:00 17.29167 C 9.85 g/m*3 17.29 C 9.41667 km/h
350 11-09-2019 13:00:00 19.9 C 9.95 g/m*3 19.9 C 12.75833 km/h
Sensor: Nr:Datum:Temp:Abs-Feuchte:Windchill:Wind:
Aussen-T/F 351 11-09-2019 14:00:00 20.58333 C 9.88 g/m*3 20.58 C 16.5 km/h
352 11-09-2019 15:00:00 20.53333 C 10.07 g/m*3 20.53 C 10.225 km/h
353 11-09-2019 16:00:00 20.03333 C 11.17 g/m*3 20.03 C 4.825 km/h
354 11-09-2019 17:00:00 19.16667 C 10.86 g/m*3 19.17 C 8.45833 km/h
355 11-09-2019 18:00:00 18.35833 C 10.7 g/m*3 18.36 C 3.75833 km/h
356 11-09-2019 19:00:00 17.26667 C 10.41 g/m*3 17.27 C 3.20833 km/h
357 11-09-2019 20:00:00 16.50833 C 10.64 g/m*3 16.51 C 0.93333 km/h
358 11-09-2019 21:00:00 16.275 C 10.82 g/m*3 16.27 C 0.93333 km/h
359 11-09-2019 22:00:00 16.41667 C 11.06 g/m*3 16.42 C 0.93333 km/h
360 11-09-2019 23:00:00 15.7 C 11.15 g/m*3 15.7 C 0.93333 km/h
361 12-09-2019 00:00:00 15.51667 C 10.97 g/m*3 15.52 C 1.86667 km/h
362 12-09-2019 01:00:00 16.14167 C 11.09 g/m*3 16.14 C 1.74167 km/h
363 12-09-2019 02:00:00 17.23333 C 10.81 g/m*3 17.23 C 6.975 km/h
364 12-09-2019 03:00:00 17.24167 C 11 g/m*3 17.24 C 6.70833 km/h
365 12-09-2019 04:00:00 17.05 C 11.08 g/m*3 17.05 C 2.93333 km/h
366 12-09-2019 05:00:00 16.975 C 11.25 g/m*3 16.98 C 8.31667 km/h
367 12-09-2019 06:00:00 16.9 C 11.4 g/m*3 16.9 C 5.75833 km/h
368 12-09-2019 07:00:00 16.24167 C 11.53 g/m*3 16.24 C 0.8 km/h
369 12-09-2019 08:00:00 16.83333 C 12.06 g/m*3 16.83 C 5.76667 km/h
370 12-09-2019 09:00:00 17.40833 C 12.53 g/m*3 17.41 C 9.025 km/h
371 12-09-2019 10:00:00 18.21667 C 13.08 g/m*3 18.22 C 11.15833 km/h
372 12-09-2019 11:00:00 19.21667 C 13.52 g/m*3 19.22 C 9.01667 km/h
373 12-09-2019 12:00:00 20.25833 C 13.93 g/m*3 20.26 C 10.34167 km/h
374 12-09-2019 13:00:00 20.9 C 14.27 g/m*3 20.9 C 7.79167 km/h
375 12-09-2019 14:00:00 21.38333 C 14.69 g/m*3 21.38 C 1.6 km/h
Sensor: Nr:Datum:Temp:Abs-Feuchte:Windchill:Wind:
Aussen-T/F 376 12-09-2019 15:00:00 22.25833 C 14.77 g/m*3 22.26 C 4.025 km/h
377 12-09-2019 16:00:00 22.95 C 14.67 g/m*3 22.95 C 7.91667 km/h
378 12-09-2019 17:00:00 24.44167 C 14.46 g/m*3 24.44 C 11.83333 km/h
379 12-09-2019 18:00:00 24.95833 C 14.66 g/m*3 24.96 C 6.56667 km/h
380 12-09-2019 19:00:00 22.86667 C 14.23 g/m*3 22.87 C 0.53333 km/h
381 12-09-2019 20:00:00 19.11667 C 13.29 g/m*3 19.12 C 0.4 km/h
382 12-09-2019 21:00:00 18.225 C 13.19 g/m*3 18.23 C 0.26667 km/h
383 12-09-2019 22:00:00 18.35 C 13.17 g/m*3 18.35 C 0.4 km/h
384 12-09-2019 23:00:00 17.06667 C 12.6 g/m*3 17.07 C 0 km/h
385 13-09-2019 00:00:00 15.98333 C 12.26 g/m*3 15.98 C 0.93333 km/h
386 13-09-2019 01:00:00 15.55 C 12.18 g/m*3 15.55 C 3.6 km/h
387 13-09-2019 02:00:00 15.25 C 12.05 g/m*3 15.25 C 1.46667 km/h
388 13-09-2019 03:00:00 15.1 C 12.07 g/m*3 15.1 C 1.06667 km/h
389 13-09-2019 04:00:00 15.575 C 12.4 g/m*3 15.58 C 2.93333 km/h
390 13-09-2019 05:00:00 16.19167 C 12.55 g/m*3 16.19 C 6.84167 km/h
391 13-09-2019 06:00:00 16.25833 C 12.58 g/m*3 16.26 C 4.3 km/h
392 13-09-2019 07:00:00 16.64167 C 12.75 g/m*3 16.64 C 2.94167 km/h
393 13-09-2019 08:00:00 16.85833 C 13.01 g/m*3 16.86 C 0.8 km/h
394 13-09-2019 09:00:00 17.49167 C 13.31 g/m*3 17.49 C 2 km/h
395 13-09-2019 10:00:00 18.51667 C 13.63 g/m*3 18.52 C 0.8 km/h
396 13-09-2019 11:00:00 19.6 C 13.91 g/m*3 19.6 C 2.8 km/h
397 13-09-2019 12:00:00 20.35 C 14.02 g/m*3 20.35 C 1.2 km/h
398 13-09-2019 13:00:00 20.60833 C 13.82 g/m*3 20.61 C 4.675 km/h
399 13-09-2019 14:00:00 21.16667 C 14.03 g/m*3 21.17 C 6.15833 km/h
400 13-09-2019 15:00:00 20.85833 C 14.13 g/m*3 20.86 C 12.76667 km/h
Sensor: Nr:Datum:Temp:Abs-Feuchte:Windchill:Wind:
Aussen-T/F 401 13-09-2019 16:00:00 19.325 C 14.49 g/m*3 19.33 C 5.90833 km/h
402 13-09-2019 17:00:00 19.20833 C 14.74 g/m*3 19.21 C 0 km/h
403 13-09-2019 18:00:00 20 C 15.42 g/m*3 20 C 0 km/h
404 13-09-2019 19:00:00 19.48333 C 14.46 g/m*3 19.48 C 0 km/h
405 13-09-2019 20:00:00 17.60833 C 13.73 g/m*3 17.61 C 0.26667 km/h
406 13-09-2019 21:00:00 16.95 C 13.39 g/m*3 16.95 C 0 km/h
407 13-09-2019 22:00:00 16.25833 C 12.87 g/m*3 16.26 C 0 km/h
408 13-09-2019 23:00:00 15.48333 C 12.38 g/m*3 15.48 C 0 km/h
409 14-09-2019 00:00:00 15.39167 C 12.41 g/m*3 15.39 C 0 km/h
410 14-09-2019 01:00:00 14.63333 C 11.86 g/m*3 14.63 C 0 km/h
411 14-09-2019 02:00:00 13.525 C 11.07 g/m*3 13.53 C 0 km/h
412 14-09-2019 03:00:00 12.70833 C 10.58 g/m*3 12.71 C 0 km/h
413 14-09-2019 04:00:00 12.00833 C 10.18 g/m*3 12.01 C 0 km/h
414 14-09-2019 05:00:00 11.31667 C 9.79 g/m*3 11.32 C 0 km/h
415 14-09-2019 06:00:00 10.78333 C 9.48 g/m*3 10.78 C 0 km/h
416 14-09-2019 07:00:00 10.4 C 9.25 g/m*3 10.4 C 0 km/h
417 14-09-2019 08:00:00 10.40833 C 9.26 g/m*3 10.41 C 0 km/h
418 14-09-2019 09:00:00 11.00833 C 9.71 g/m*3 11.01 C 0.13333 km/h
419 14-09-2019 10:00:00 12.25833 C 10.51 g/m*3 12.26 C 0.26667 km/h
420 14-09-2019 11:00:00 13.69167 C 11.26 g/m*3 13.69 C 0.26667 km/h
421 14-09-2019 12:00:00 16.14167 C 11.54 g/m*3 16.14 C 0.8 km/h
422 14-09-2019 13:00:00 18.675 C 11.2 g/m*3 18.68 C 3.74167 km/h
423 14-09-2019 14:00:00 20.43333 C 11.02 g/m*3 20.43 C 4.95 km/h
424 14-09-2019 15:00:00 21.74167 C 10.66 g/m*3 21.74 C 5.35833 km/h
425 14-09-2019 16:00:00 22.44167 C 10.43 g/m*3 22.44 C 4.3 km/h
Sensor: Nr:Datum:Temp:Abs-Feuchte:Windchill:Wind:
Aussen-T/F 426 14-09-2019 17:00:00 24.14167 C 10.29 g/m*3 24.14 C 4.81667 km/h
427 14-09-2019 18:00:00 23.6 C 11.63 g/m*3 23.6 C 0 km/h
428 14-09-2019 19:00:00 19.45833 C 10.87 g/m*3 19.46 C 0.13333 km/h
429 14-09-2019 20:00:00 16.95833 C 10.12 g/m*3 16.96 C 0 km/h
430 14-09-2019 21:00:00 15.96667 C 10.01 g/m*3 15.97 C 0 km/h
431 14-09-2019 22:00:00 13.8 C 9.68 g/m*3 13.8 C 0 km/h
432 14-09-2019 23:00:00 12.48333 C 9.38 g/m*3 12.48 C 0 km/h
433 15-09-2019 00:00:00 11.65 C 9.12 g/m*3 11.65 C 0 km/h
434 15-09-2019 01:00:00 10.825 C 8.89 g/m*3 10.83 C 0 km/h
435 15-09-2019 02:00:00 10.375 C 8.83 g/m*3 10.38 C 0 km/h
436 15-09-2019 03:00:00 10.16667 C 8.79 g/m*3 10.17 C 0.13333 km/h
437 15-09-2019 04:00:00 9.75833 C 8.61 g/m*3 9.76 C 0.13333 km/h
438 15-09-2019 05:00:00 9.31667 C 8.46 g/m*3 9.32 C 0 km/h
439 15-09-2019 06:00:00 8.76667 C 8.17 g/m*3 8.77 C 0 km/h
440 15-09-2019 07:00:00 8.775 C 8.26 g/m*3 8.78 C 0.53333 km/h
441 15-09-2019 08:00:00 9.29167 C 8.62 g/m*3 9.29 C 0.53333 km/h
442 15-09-2019 09:00:00 10.03333 C 9.04 g/m*3 10.03 C 0 km/h
443 15-09-2019 10:00:00 11.35833 C 9.83 g/m*3 11.36 C 0 km/h
444 15-09-2019 11:00:00 13.71667 C 11.23 g/m*3 13.72 C 0 km/h
445 15-09-2019 12:00:00 16.96667 C 12.32 g/m*3 16.97 C 0 km/h
446 15-09-2019 13:00:00 20.45833 C 12.4 g/m*3 20.46 C 0 km/h
447 15-09-2019 14:00:00 22.79167 C 12.41 g/m*3 22.79 C 0.53333 km/h
448 15-09-2019 15:00:00 24.05 C 12.35 g/m*3 24.05 C 0.53333 km/h
449 15-09-2019 16:00:00 24.65833 C 11.93 g/m*3 24.66 C 2.66667 km/h
450 15-09-2019 17:00:00 25.84167 C 11.52 g/m*3 25.84 C 1.6 km/h
Sensor: Nr:Datum:Temp:Abs-Feuchte:Windchill:Wind:
Aussen-T/F 451 15-09-2019 18:00:00 26.43333 C 11.47 g/m*3 26.43 C 0.4 km/h
452 15-09-2019 19:00:00 21.96667 C 11.11 g/m*3 21.97 C 0 km/h
453 15-09-2019 20:00:00 18.225 C 9.86 g/m*3 18.23 C 0 km/h
454 15-09-2019 21:00:00 16.76667 C 9.56 g/m*3 16.77 C 0 km/h
455 15-09-2019 22:00:00 14.475 C 9.48 g/m*3 14.48 C 0 km/h
456 15-09-2019 23:00:00 12.99167 C 9.21 g/m*3 12.99 C 0 km/h
457 16-09-2019 00:00:00 12.55 C 9.24 g/m*3 12.55 C 0 km/h
458 16-09-2019 01:00:00 12.25833 C 9.26 g/m*3 12.26 C 0.53333 km/h
459 16-09-2019 02:00:00 11.41667 C 9.02 g/m*3 11.42 C 0.26667 km/h
460 16-09-2019 03:00:00 11.11667 C 9.09 g/m*3 11.12 C 0.4 km/h
461 16-09-2019 04:00:00 11.45833 C 9.31 g/m*3 11.46 C 0.66667 km/h
462 16-09-2019 05:00:00 11.51667 C 9.27 g/m*3 11.52 C 0.4 km/h
463 16-09-2019 06:00:00 11.23333 C 9.22 g/m*3 11.23 C 0 km/h
464 16-09-2019 07:00:00 11.31667 C 9.35 g/m*3 11.32 C 0.13333 km/h
465 16-09-2019 08:00:00 12.075 C 9.65 g/m*3 12.08 C 1.2 km/h
466 16-09-2019 09:00:00 13.4 C 10.02 g/m*3 13.4 C 1.06667 km/h
467 16-09-2019 10:00:00 14.99167 C 10.52 g/m*3 14.99 C 0.93333 km/h
468 16-09-2019 11:00:00 17.41667 C 11.29 g/m*3 17.42 C 1.33333 km/h
469 16-09-2019 12:00:00 19.64167 C 11.69 g/m*3 19.64 C 4.40833 km/h
470 16-09-2019 13:00:00 21.18333 C 11.4 g/m*3 21.18 C 5.9 km/h
471 16-09-2019 14:00:00 22.05 C 11.19 g/m*3 22.05 C 4.26667 km/h
472 16-09-2019 15:00:00 22.075 C 11.53 g/m*3 22.08 C 4.275 km/h
473 16-09-2019 16:00:00 22.10833 C 10.87 g/m*3 22.11 C 7.65 km/h
474 16-09-2019 17:00:00 21.8 C 11.67 g/m*3 21.8 C 7.525 km/h
475 16-09-2019 18:00:00 20.725 C 11.4 g/m*3 20.73 C 4.95 km/h
Sensor: Nr:Datum:Temp:Abs-Feuchte:Windchill:Wind:
Aussen-T/F 476 16-09-2019 19:00:00 19.71667 C 11.57 g/m*3 19.72 C 8.46667 km/h
477 16-09-2019 20:00:00 17.64167 C 12.45 g/m*3 17.64 C 2.275 km/h
478 16-09-2019 21:00:00 16.74167 C 12.53 g/m*3 16.74 C 1.46667 km/h
479 16-09-2019 22:00:00 16.43333 C 12.39 g/m*3 16.43 C 4.825 km/h
480 16-09-2019 23:00:00 15.4 C 12.03 g/m*3 15.4 C 4.14167 km/h
481 17-09-2019 00:00:00 15.05833 C 11.74 g/m*3 15.06 C 1.73333 km/h
482 17-09-2019 01:00:00 14.81667 C 11.42 g/m*3 14.82 C 4 km/h
483 17-09-2019 02:00:00 14.66667 C 11.26 g/m*3 14.67 C 3.475 km/h
484 17-09-2019 03:00:00 14.54167 C 11.1 g/m*3 14.54 C 1.46667 km/h
485 17-09-2019 04:00:00 14.30833 C 11.03 g/m*3 14.31 C 0.4 km/h
486 17-09-2019 05:00:00 14.16667 C 11 g/m*3 14.17 C 0.53333 km/h
487 17-09-2019 06:00:00 14.1 C 10.95 g/m*3 14.1 C 3.74167 km/h
488 17-09-2019 07:00:00 14.01667 C 10.81 g/m*3 14.02 C 1.86667 km/h
489 17-09-2019 08:00:00 14 C 10.57 g/m*3 14 C 4.00833 km/h
490 17-09-2019 09:00:00 14.04167 C 10.08 g/m*3 14.04 C 8.33333 km/h
491 17-09-2019 10:00:00 14.925 C 9.51 g/m*3 14.93 C 11.29167 km/h
492 17-09-2019 11:00:00 15.73333 C 9.52 g/m*3 15.73 C 11.56667 km/h
493 17-09-2019 12:00:00 16.125 C 9.35 g/m*3 16.13 C 13.83333 km/h
494 17-09-2019 13:00:00 16.625 C 9.11 g/m*3 16.63 C 13.43333 km/h
495 17-09-2019 14:00:00 17.44167 C 9.01 g/m*3 17.44 C 13.43333 km/h
496 17-09-2019 15:00:00 17.66667 C 8.72 g/m*3 17.67 C 12.1 km/h
497 17-09-2019 16:00:00 18.05833 C 8.61 g/m*3 18.06 C 12.76667 km/h
498 17-09-2019 17:00:00 18.125 C 8.63 g/m*3 18.13 C 11.41667 km/h
499 17-09-2019 18:00:00 18.45 C 8.52 g/m*3 18.45 C 13.43333 km/h
500 17-09-2019 19:00:00 17.3 C 8.79 g/m*3 17.3 C 5.775 km/h
Sensor: Nr:Datum:Temp:Abs-Feuchte:Windchill:Wind:
Aussen-T/F 501 17-09-2019 20:00:00 16.71667 C 8.94 g/m*3 16.72 C 6.03333 km/h
502 17-09-2019 21:00:00 16.00833 C 8.74 g/m*3 16.01 C 12.36667 km/h
503 17-09-2019 22:00:00 14.55833 C 7.86 g/m*3 14.56 C 11.7 km/h
504 17-09-2019 23:00:00 13.40833 C 7.65 g/m*3 13.41 C 6.45 km/h
505 18-09-2019 00:00:00 11.80833 C 7.43 g/m*3 11.81 C 3.86667 km/h
506 18-09-2019 01:00:00 10.83333 C 7.47 g/m*3 10.83 C 2.8 km/h
507 18-09-2019 02:00:00 9.26667 C 7.32 g/m*3 9.27 C 0 km/h
508 18-09-2019 03:00:00 8.25 C 7.19 g/m*3 8.25 C 0 km/h
509 18-09-2019 04:00:00 7.425 C 7.05 g/m*3 7.43 C 0 km/h
510 18-09-2019 05:00:00 6.76667 C 6.89 g/m*3 6.77 C 0 km/h
511 18-09-2019 06:00:00 6.08333 C 6.7 g/m*3 6.08 C 0 km/h
512 18-09-2019 07:00:00 5.8 C 6.67 g/m*3 5.8 C 0 km/h
513 18-09-2019 08:00:00 6.10833 C 6.87 g/m*3 6.11 C 0 km/h
514 18-09-2019 09:00:00 7.01667 C 7.37 g/m*3 7.02 C 0 km/h
515 18-09-2019 10:00:00 8.375 C 8.05 g/m*3 8.38 C 0 km/h
516 18-09-2019 11:00:00 10.625 C 8.65 g/m*3 10.63 C 1.33333 km/h
517 18-09-2019 12:00:00 13.6 C 8.4 g/m*3 13.6 C 5.61667 km/h
518 18-09-2019 13:00:00 15.1 C 7.76 g/m*3 15.1 C 9 km/h
519 18-09-2019 14:00:00 16.25 C 7.43 g/m*3 16.25 C 9.54167 km/h
520 18-09-2019 15:00:00 17.00833 C 7.27 g/m*3 17.01 C 8.86667 km/h
521 18-09-2019 16:00:00 17.225 C 7.48 g/m*3 17.23 C 9.95 km/h
522 18-09-2019 17:00:00 18.14167 C 7.1 g/m*3 18.14 C 11.56667 km/h
523 18-09-2019 18:00:00 18.08333 C 6.92 g/m*3 18.08 C 8.58333 km/h
524 18-09-2019 19:00:00 15.75 C 7.28 g/m*3 15.75 C 1.06667 km/h
525 18-09-2019 20:00:00 12.30833 C 7.28 g/m*3 12.31 C 0 km/h
Sensor: Nr:Datum:Temp:Abs-Feuchte:Windchill:Wind:
Aussen-T/F 526 18-09-2019 21:00:00 11.525 C 7.45 g/m*3 11.53 C 0 km/h
527 18-09-2019 22:00:00 10.68333 C 7.43 g/m*3 10.68 C 0 km/h
528 18-09-2019 23:00:00 9.85833 C 7.44 g/m*3 9.86 C 0 km/h
529 19-09-2019 00:00:00 9.16667 C 7.4 g/m*3 9.17 C 0 km/h
530 19-09-2019 01:00:00 8.5 C 7.23 g/m*3 8.5 C 0 km/h
531 19-09-2019 02:00:00 7.20833 C 6.97 g/m*3 7.21 C 0 km/h
532 19-09-2019 03:00:00 6.58333 C 6.86 g/m*3 6.58 C 0 km/h
533 19-09-2019 04:00:00 6.08333 C 6.73 g/m*3 6.08 C 0 km/h
534 19-09-2019 05:00:00 5.65833 C 6.6 g/m*3 5.66 C 0 km/h
535 19-09-2019 06:00:00 5.26667 C 6.48 g/m*3 5.27 C 0 km/h
536 19-09-2019 07:00:00 5.14167 C 6.45 g/m*3 5.14 C 0 km/h
537 19-09-2019 08:00:00 5.33333 C 6.59 g/m*3 5.33 C 0 km/h
538 19-09-2019 09:00:00 6.31667 C 7.08 g/m*3 6.32 C 0 km/h
539 19-09-2019 10:00:00 7.725 C 7.8 g/m*3 7.73 C 0 km/h
540 19-09-2019 11:00:00 9.70833 C 8.42 g/m*3 9.71 C 0.4 km/h
541 19-09-2019 12:00:00 13.33333 C 7.53 g/m*3 13.33 C 10.35833 km/h
542 19-09-2019 13:00:00 14.46667 C 7.05 g/m*3 14.47 C 6.3 km/h
543 19-09-2019 14:00:00 15.7 C 6.76 g/m*3 15.7 C 7.38333 km/h
544 19-09-2019 15:00:00 16.48333 C 6.7 g/m*3 16.48 C 9.54167 km/h
545 19-09-2019 16:00:00 17.08333 C 6.67 g/m*3 17.08 C 9.28333 km/h
546 19-09-2019 17:00:00 18.04167 C 6.51 g/m*3 18.04 C 8.59167 km/h
547 19-09-2019 18:00:00 18.01667 C 6.64 g/m*3 18.02 C 4.96667 km/h
548 19-09-2019 19:00:00 15.00833 C 7.05 g/m*3 15.01 C 0 km/h
549 19-09-2019 20:00:00 11.975 C 6.78 g/m*3 11.98 C 0 km/h
550 19-09-2019 21:00:00 10.525 C 6.78 g/m*3 10.53 C 0 km/h
Sensor: Nr:Datum:Temp:Abs-Feuchte:Windchill:Wind:
Aussen-T/F 551 19-09-2019 22:00:00 9.59167 C 6.78 g/m*3 9.59 C 0 km/h
552 19-09-2019 23:00:00 8.45 C 6.65 g/m*3 8.45 C 0 km/h
553 20-09-2019 00:00:00 7.625 C 6.46 g/m*3 7.63 C 0 km/h
554 20-09-2019 01:00:00 7.05 C 6.42 g/m*3 7.05 C 0 km/h
555 20-09-2019 02:00:00 6.21667 C 6.27 g/m*3 6.22 C 0 km/h
556 20-09-2019 03:00:00 5.75 C 6.19 g/m*3 5.75 C 0 km/h
557 20-09-2019 04:00:00 5.15 C 6.09 g/m*3 5.15 C 0 km/h
558 20-09-2019 05:00:00 4.69167 C 6.03 g/m*3 4.69 C 0 km/h
559 20-09-2019 06:00:00 4.325 C 5.97 g/m*3 4.33 C 0 km/h
560 20-09-2019 07:00:00 4.125 C 5.96 g/m*3 4.13 C 0 km/h
561 20-09-2019 08:00:00 4.65 C 6.24 g/m*3 4.65 C 0 km/h
562 20-09-2019 09:00:00 5.625 C 6.69 g/m*3 5.63 C 0 km/h
563 20-09-2019 10:00:00 7.39167 C 7.47 g/m*3 7.39 C 0 km/h
564 20-09-2019 11:00:00 10 C 8.1 g/m*3 10 C 0 km/h
565 20-09-2019 12:00:00 13.41667 C 7.68 g/m*3 13.42 C 4.95833 km/h
566 20-09-2019 13:00:00 15.83333 C 7.25 g/m*3 15.83 C 5.21667 km/h
567 20-09-2019 14:00:00 17.63333 C 7.14 g/m*3 17.63 C 7.11667 km/h
568 20-09-2019 15:00:00 18.525 C 6.89 g/m*3 18.52 C 7.925 km/h
569 20-09-2019 16:00:00 19.26667 C 7.01 g/m*3 19.27 C 9.28333 km/h
570 20-09-2019 17:00:00 20.33333 C 7.02 g/m*3 20.33 C 8.59167 km/h
571 20-09-2019 18:00:00 20.525 C 7.17 g/m*3 20.53 C 4.55 km/h
572 20-09-2019 19:00:00 15.85 C 7.09 g/m*3 15.85 C 0.8 km/h
573 20-09-2019 20:00:00 13.7 C 6.96 g/m*3 13.7 C 1.33333 km/h
574 20-09-2019 21:00:00 11.68333 C 7.14 g/m*3 11.68 C 0 km/h
575 20-09-2019 22:00:00 9.525 C 6.97 g/m*3 9.53 C 0 km/h
Sensor: Nr:Datum:Temp:Abs-Feuchte:Windchill:Wind:
Aussen-T/F 576 20-09-2019 23:00:00 8.425 C 6.87 g/m*3 8.43 C 0 km/h
577 21-09-2019 00:00:00 7.44167 C 6.69 g/m*3 7.44 C 0 km/h
578 21-09-2019 01:00:00 6.85 C 6.55 g/m*3 6.85 C 0 km/h
579 21-09-2019 02:00:00 6.34167 C 6.4 g/m*3 6.34 C 0 km/h
580 21-09-2019 03:00:00 5.80833 C 6.27 g/m*3 5.81 C 0 km/h
581 21-09-2019 04:00:00 5.45833 C 6.24 g/m*3 5.46 C 0 km/h
582 21-09-2019 05:00:00 5.275 C 6.25 g/m*3 5.28 C 0 km/h
583 21-09-2019 06:00:00 4.80833 C 6.1 g/m*3 4.81 C 0 km/h
584 21-09-2019 07:00:00 4.60833 C 6.09 g/m*3 4.61 C 0 km/h
585 21-09-2019 08:00:00 4.725 C 6.21 g/m*3 4.72 C 0 km/h
586 21-09-2019 09:00:00 5.79167 C 6.72 g/m*3 5.79 C 0 km/h
587 21-09-2019 10:00:00 8.225 C 7.58 g/m*3 8.23 C 0 km/h
588 21-09-2019 11:00:00 11.40833 C 8.4 g/m*3 11.41 C 0 km/h
589 21-09-2019 12:00:00 14.95 C 8.6 g/m*3 14.95 C 0.66667 km/h
590 21-09-2019 13:00:00 18.2 C 7.78 g/m*3 18.2 C 4 km/h
591 21-09-2019 14:00:00 21.43333 C 6.23 g/m*3 21.43 C 7.24167 km/h
592 21-09-2019 15:00:00 22.63333 C 6.11 g/m*3 22.63 C 7.925 km/h
593 21-09-2019 16:00:00 23.23333 C 6.53 g/m*3 23.23 C 7.375 km/h
594 21-09-2019 17:00:00 24.65833 C 7.13 g/m*3 24.66 C 5.09167 km/h
595 21-09-2019 18:00:00 22.74167 C 7.97 g/m*3 22.74 C 0.66667 km/h
596 21-09-2019 19:00:00 18.49167 C 7.54 g/m*3 18.49 C 1.6 km/h
597 21-09-2019 20:00:00 16.16667 C 7.62 g/m*3 16.17 C 0.66667 km/h
598 21-09-2019 21:00:00 13.66667 C 7.8 g/m*3 13.67 C 0 km/h
599 21-09-2019 22:00:00 11.99167 C 7.62 g/m*3 11.99 C 0 km/h
600 21-09-2019 23:00:00 10.88333 C 7.52 g/m*3 10.88 C 0 km/h
Sensor: Nr:Datum:Temp:Abs-Feuchte:Windchill:Wind:
Aussen-T/F 601 22-09-2019 00:00:00 9.825 C 7.43 g/m*3 9.82 C 0 km/h
602 22-09-2019 01:00:00 9.08333 C 7.39 g/m*3 9.08 C 0 km/h
603 22-09-2019 02:00:00 8.425 C 7.24 g/m*3 8.43 C 0 km/h
604 22-09-2019 03:00:00 7.96667 C 7.23 g/m*3 7.97 C 0 km/h
605 22-09-2019 04:00:00 7.39167 C 7.07 g/m*3 7.39 C 0 km/h
606 22-09-2019 05:00:00 7.06667 C 7.06 g/m*3 7.07 C 0 km/h
607 22-09-2019 06:00:00 6.99167 C 7.12 g/m*3 6.99 C 0 km/h
608 22-09-2019 07:00:00 6.93333 C 7.14 g/m*3 6.93 C 0 km/h
609 22-09-2019 08:00:00 7.55833 C 7.47 g/m*3 7.56 C 0 km/h
610 22-09-2019 09:00:00 8.63333 C 8.02 g/m*3 8.63 C 0 km/h
611 22-09-2019 10:00:00 11.05 C 9.19 g/m*3 11.05 C 0 km/h
612 22-09-2019 11:00:00 14.83333 C 10.13 g/m*3 14.83 C 0 km/h
613 22-09-2019 12:00:00 17.68333 C 10.99 g/m*3 17.68 C 0 km/h
614 22-09-2019 13:00:00 20.70833 C 11.63 g/m*3 20.71 C 0.26667 km/h
615 22-09-2019 14:00:00 24.05 C 11.64 g/m*3 24.05 C 2.93333 km/h
616 22-09-2019 15:00:00 24.85 C 11.36 g/m*3 24.85 C 3.86667 km/h
617 22-09-2019 16:00:00 24.73333 C 12.25 g/m*3 24.73 C 0.8 km/h
618 22-09-2019 17:00:00 23.48333 C 12.59 g/m*3 23.48 C 0 km/h
619 22-09-2019 18:00:00 21.74167 C 12.24 g/m*3 21.74 C 0 km/h
620 22-09-2019 19:00:00 20.33333 C 11.45 g/m*3 20.33 C 0 km/h
621 22-09-2019 20:00:00 19.075 C 10.9 g/m*3 19.08 C 2 km/h
622 22-09-2019 21:00:00 18.175 C 10.66 g/m*3 18.18 C 1.46667 km/h
623 22-09-2019 22:00:00 18.3 C 10.92 g/m*3 18.3 C 0.13333 km/h
624 22-09-2019 23:00:00 17.80833 C 11.4 g/m*3 17.81 C 0 km/h
625 23-09-2019 00:00:00 17.55833 C 12.04 g/m*3 17.56 C 2.80833 km/h
Sensor: Nr:Datum:Temp:Abs-Feuchte:Windchill:Wind:
Aussen-T/F 626 23-09-2019 01:00:00 18.375 C 12.81 g/m*3 18.38 C 3.33333 km/h
627 23-09-2019 02:00:00 18.10833 C 12.21 g/m*3 18.11 C 9.26667 km/h
628 23-09-2019 03:00:00 17.2 C 12.06 g/m*3 17.2 C 4.95 km/h
629 23-09-2019 04:00:00 16.05833 C 11.82 g/m*3 16.06 C 0.93333 km/h
630 23-09-2019 05:00:00 15.14167 C 11.8 g/m*3 15.14 C 1.86667 km/h
631 23-09-2019 06:00:00 14.43333 C 11.53 g/m*3 14.43 C 0.26667 km/h
632 23-09-2019 07:00:00 14.23333 C 11.52 g/m*3 14.23 C 0 km/h
633 23-09-2019 08:00:00 14.25 C 11.64 g/m*3 14.25 C 0 km/h
634 23-09-2019 09:00:00 14.74167 C 12.1 g/m*3 14.74 C 0 km/h
635 23-09-2019 10:00:00 15.425 C 12.63 g/m*3 15.43 C 0.4 km/h
636 23-09-2019 11:00:00 16.26667 C 13.08 g/m*3 16.27 C 2.8 km/h
637 23-09-2019 12:00:00 17.06667 C 13.18 g/m*3 17.07 C 8.06667 km/h
638 23-09-2019 13:00:00 18.2 C 12.67 g/m*3 18.2 C 10.49167 km/h
639 23-09-2019 14:00:00 19.425 C 11.89 g/m*3 19.43 C 13.3 km/h
640 23-09-2019 15:00:00 19.61667 C 11.63 g/m*3 19.62 C 12.36667 km/h
641 23-09-2019 16:00:00 19.94167 C 11.61 g/m*3 19.94 C 14.36667 km/h
642 23-09-2019 17:00:00 20.24167 C 11.57 g/m*3 20.24 C 12.49167 km/h
643 23-09-2019 18:00:00 18.46667 C 11.71 g/m*3 18.47 C 1.2 km/h
644 23-09-2019 19:00:00 16 C 11.16 g/m*3 16 C 0.13333 km/h
645 23-09-2019 20:00:00 14.34167 C 10.75 g/m*3 14.34 C 0 km/h
646 23-09-2019 21:00:00 13.96667 C 10.85 g/m*3 13.97 C 0 km/h
647 23-09-2019 22:00:00 13.9 C 11.03 g/m*3 13.9 C 0 km/h
648 23-09-2019 23:00:00 14.11667 C 11.21 g/m*3 14.12 C 0 km/h
649 24-09-2019 00:00:00 14.33333 C 11.37 g/m*3 14.33 C 0 km/h
650 24-09-2019 01:00:00 13.95 C 11.01 g/m*3 13.95 C 0 km/h
Sensor: Nr:Datum:Temp:Abs-Feuchte:Windchill:Wind:
Aussen-T/F 651 24-09-2019 02:00:00 12.66667 C 10.28 g/m*3 12.67 C 0 km/h
652 24-09-2019 03:00:00 11.96667 C 9.98 g/m*3 11.97 C 0 km/h
653 24-09-2019 04:00:00 11.50833 C 9.77 g/m*3 11.51 C 0 km/h
654 24-09-2019 05:00:00 10.675 C 9.31 g/m*3 10.68 C 0 km/h
655 24-09-2019 06:00:00 10.25 C 9.1 g/m*3 10.25 C 0 km/h
656 24-09-2019 07:00:00 9.89167 C 8.94 g/m*3 9.89 C 0 km/h
657 24-09-2019 08:00:00 10.65 C 9.44 g/m*3 10.65 C 0 km/h
658 24-09-2019 09:00:00 11.35833 C 9.93 g/m*3 11.36 C 0.8 km/h
659 24-09-2019 10:00:00 12.49167 C 10.66 g/m*3 12.49 C 0 km/h
660 24-09-2019 11:00:00 14.48333 C 11.78 g/m*3 14.48 C 0.93333 km/h
661 24-09-2019 12:00:00 17.53333 C 12.03 g/m*3 17.53 C 3.88333 km/h
662 24-09-2019 13:00:00 18.59167 C 11.6 g/m*3 18.59 C 6.44167 km/h
663 24-09-2019 14:00:00 19.21667 C 11.33 g/m*3 19.22 C 1.60833 km/h
664 24-09-2019 15:00:00 18.63333 C 11.3 g/m*3 18.63 C 0.66667 km/h
665 24-09-2019 16:00:00 17.70833 C 12.37 g/m*3 17.71 C 0.93333 km/h
666 24-09-2019 17:00:00 16.95 C 12.96 g/m*3 16.95 C 0 km/h
667 24-09-2019 18:00:00 16.125 C 12.64 g/m*3 16.13 C 0 km/h
668 24-09-2019 19:00:00 15.1 C 12.01 g/m*3 15.1 C 0 km/h
669 24-09-2019 20:00:00 14.01667 C 11.37 g/m*3 14.02 C 0 km/h
670 24-09-2019 21:00:00 13.65 C 11.21 g/m*3 13.65 C 0 km/h
671 24-09-2019 22:00:00 13.64167 C 11.29 g/m*3 13.64 C 0 km/h
672 24-09-2019 23:00:00 13.775 C 11.42 g/m*3 13.78 C 0 km/h
673 25-09-2019 00:00:00 13.99167 C 11.57 g/m*3 13.99 C 0.13333 km/h
674 25-09-2019 01:00:00 14.13333 C 11.72 g/m*3 14.13 C 1.34167 km/h
675 25-09-2019 02:00:00 14.49167 C 11.93 g/m*3 14.49 C 3.35 km/h
Sensor: Nr:Datum:Temp:Abs-Feuchte:Windchill:Wind:
Aussen-T/F 676 25-09-2019 03:00:00 14.6 C 12.01 g/m*3 14.6 C 0.4 km/h
677 25-09-2019 04:00:00 14.55833 C 11.98 g/m*3 14.56 C 0.53333 km/h
678 25-09-2019 05:00:00 14.01667 C 11.59 g/m*3 14.02 C 1.33333 km/h
679 25-09-2019 06:00:00 13.64167 C 11.33 g/m*3 13.64 C 0.93333 km/h
680 25-09-2019 07:00:00 13.61667 C 11.33 g/m*3 13.62 C 0.8 km/h
681 25-09-2019 08:00:00 13.75 C 11.51 g/m*3 13.75 C 0 km/h
682 25-09-2019 09:00:00 14.33333 C 11.94 g/m*3 14.33 C 1.33333 km/h
683 25-09-2019 10:00:00 14.90833 C 12.03 g/m*3 14.91 C 8.475 km/h
684 25-09-2019 11:00:00 16.225 C 11.94 g/m*3 16.23 C 13.69167 km/h
685 25-09-2019 12:00:00 16.875 C 11.57 g/m*3 16.88 C 10.35833 km/h
686 25-09-2019 13:00:00 17.38333 C 11.46 g/m*3 17.38 C 11.81667 km/h
687 25-09-2019 14:00:00 17.38333 C 11.57 g/m*3 17.38 C 10.35833 km/h
688 25-09-2019 15:00:00 16.325 C 12.4 g/m*3 16.33 C 4.8 km/h
689 25-09-2019 16:00:00 17.08333 C 12.36 g/m*3 17.08 C 7.38333 km/h
690 25-09-2019 17:00:00 17.53333 C 12.19 g/m*3 17.53 C 7.24167 km/h
691 25-09-2019 18:00:00 16.775 C 11.91 g/m*3 16.77 C 2.54167 km/h
692 25-09-2019 19:00:00 15.625 C 11.72 g/m*3 15.63 C 0.53333 km/h
693 25-09-2019 20:00:00 15.10833 C 11.76 g/m*3 15.11 C 0 km/h
694 25-09-2019 21:00:00 14.71667 C 11.69 g/m*3 14.72 C 0.13333 km/h
695 25-09-2019 22:00:00 14.7 C 11.8 g/m*3 14.7 C 0 km/h
696 25-09-2019 23:00:00 14.65833 C 11.93 g/m*3 14.66 C 0 km/h
697 26-09-2019 00:00:00 14.55833 C 11.86 g/m*3 14.56 C 0.26667 km/h
698 26-09-2019 01:00:00 14.23333 C 11.65 g/m*3 14.23 C 0 km/h
699 26-09-2019 02:00:00 14.13333 C 11.67 g/m*3 14.13 C 0 km/h
700 26-09-2019 03:00:00 13.60833 C 11.29 g/m*3 13.61 C 0 km/h
Sensor: Nr:Datum:Temp:Abs-Feuchte:Windchill:Wind:
Aussen-T/F 701 26-09-2019 04:00:00 13.25833 C 11.08 g/m*3 13.26 C 0 km/h
702 26-09-2019 05:00:00 13.90833 C 11.6 g/m*3 13.91 C 2.01667 km/h
703 26-09-2019 06:00:00 14.125 C 11.78 g/m*3 14.13 C 0.53333 km/h
704 26-09-2019 07:00:00 14.35833 C 11.84 g/m*3 14.36 C 0.13333 km/h
705 26-09-2019 08:00:00 14.74167 C 12.12 g/m*3 14.74 C 0.26667 km/h
706 26-09-2019 09:00:00 15.10833 C 12.35 g/m*3 15.11 C 0.4 km/h
707 26-09-2019 10:00:00 15.86667 C 12.91 g/m*3 15.87 C 0.13333 km/h
708 26-09-2019 11:00:00 16.59167 C 13.37 g/m*3 16.59 C 0.93333 km/h
709 26-09-2019 12:00:00 17.61667 C 13.75 g/m*3 17.62 C 5.225 km/h
710 26-09-2019 13:00:00 17.775 C 13.9 g/m*3 17.77 C 1.06667 km/h
711 26-09-2019 14:00:00 17.51667 C 13.84 g/m*3 17.52 C 0.93333 km/h
712 26-09-2019 15:00:00 18.05833 C 14.13 g/m*3 18.06 C 1.2 km/h
713 26-09-2019 16:00:00 18.83333 C 14.32 g/m*3 18.83 C 4.15 km/h
714 26-09-2019 17:00:00 18.91667 C 14.2 g/m*3 18.92 C 4.675 km/h
715 26-09-2019 18:00:00 18.71667 C 14.24 g/m*3 18.72 C 2.68333 km/h
716 26-09-2019 19:00:00 18.04167 C 13.99 g/m*3 18.04 C 2.01667 km/h
717 26-09-2019 20:00:00 17.39167 C 13.29 g/m*3 17.39 C 6.03333 km/h
718 26-09-2019 21:00:00 17.36667 C 13.16 g/m*3 17.37 C 5.5 km/h
719 26-09-2019 22:00:00 17.725 C 13.08 g/m*3 17.73 C 10.23333 km/h
720 26-09-2019 23:00:00 17.81667 C 12.99 g/m*3 17.82 C 7.5 km/h
721 27-09-2019 00:00:00 17.98333 C 12.86 g/m*3 17.98 C 6.975 km/h
722 27-09-2019 01:00:00 18.05 C 12.68 g/m*3 18.05 C 10.20833 km/h
723 27-09-2019 02:00:00 17.96667 C 12.58 g/m*3 17.97 C 9.68333 km/h
724 27-09-2019 03:00:00 16.71667 C 12.82 g/m*3 16.72 C 6.18333 km/h
725 27-09-2019 04:00:00 16.29167 C 12.83 g/m*3 16.29 C 2.95 km/h
Sensor: Nr:Datum:Temp:Abs-Feuchte:Windchill:Wind:
Aussen-T/F 726 27-09-2019 05:00:00 16.16667 C 12.81 g/m*3 16.17 C 2.13333 km/h
727 27-09-2019 06:00:00 15.78333 C 12.67 g/m*3 15.78 C 2.15 km/h
728 27-09-2019 07:00:00 14.41667 C 11.71 g/m*3 14.42 C 2.28333 km/h
729 27-09-2019 08:00:00 14.1 C 11.62 g/m*3 14.1 C 0.66667 km/h
730 27-09-2019 09:00:00 13.99167 C 11.57 g/m*3 13.99 C 3.75 km/h
731 27-09-2019 10:00:00 14.69167 C 12.02 g/m*3 14.69 C 6.58333 km/h
732 27-09-2019 11:00:00 15.35 C 12.16 g/m*3 15.35 C 6.7 km/h
733 27-09-2019 12:00:00 15.96667 C 12.11 g/m*3 15.97 C 11.29167 km/h
734 27-09-2019 13:00:00 17.29167 C 11.95 g/m*3 17.29 C 12.9 km/h
735 27-09-2019 14:00:00 18.15833 C 11.77 g/m*3 18.16 C 14.9 km/h
736 27-09-2019 15:00:00 18.21667 C 11.79 g/m*3 18.22 C 13.83333 km/h
737 27-09-2019 16:00:00 17.96667 C 11.79 g/m*3 17.97 C 12.1 km/h
738 27-09-2019 17:00:00 18.98333 C 11.78 g/m*3 18.98 C 12.36667 km/h
739 27-09-2019 18:00:00 18.01667 C 11.54 g/m*3 18.02 C 10.75833 km/h
740 27-09-2019 19:00:00 16.05833 C 11.25 g/m*3 16.06 C 3.75833 km/h
741 27-09-2019 20:00:00 15.13333 C 11.37 g/m*3 15.13 C 0.26667 km/h
742 27-09-2019 21:00:00 14.275 C 11.06 g/m*3 14.28 C 0.26667 km/h
743 27-09-2019 22:00:00 13.83333 C 11.04 g/m*3 13.83 C 0 km/h
744 27-09-2019 23:00:00 13.5 C 10.98 g/m*3 13.5 C 0 km/h

Maximal/Minimal-Werte vom 28.08.2019 - 27.09.2019

Sensor Min Max Avg
Temp
(Aussen-T/F)
4 °C
20-09-2019  07:30:00
34.3 °C
31-08-2019  17:20:00
15.65 °C
Abs-Feuchte
(Aussen-T/F)
5.96 g/m*3
20-09-2019  07:00:00
16.59 g/m*3
29-08-2019  15:00:00
10.53 g/m*3
Windchill
(Aussen-T/F)
4.13 C
20-09-2019  07:00:00
33.89 C
31-08-2019  17:00:00
15.63 C

Die Daten stammen von einer Davis Vantage Pro 2 Wetter-Station und werden unter Linux mit der Software wview2wettercgi und aufbereitet. Alle Angaben erfolgen ohne Gewähr für ihre Vollständigkeit oder Richtigkeit.
Kontakt: Rainer Krienke krienke@uni-koblenz.de . Meine Webseiten an der Uni Koblenz oder privat.
Version: $Revision: 0.78 $